Latest Weather Observations for Maroochydore

IDQ60901

Issued at 12:21 am EST Friday 24 March 2017 (issued every 10 minutes, with the page automatically refreshed every 10 minutes)

About weather observations | Map of Brisbane area stations | Latest observations for Brisbane area | Other Formats
Station Details ID: 040861 Name: SUNSHINE COAST AIRPORT Lat: -26.60 Lon: 153.09 Height: 3.3 m
Data from the previous 72 hours. | See also: Recent months at Maroochydore
Date/Time
EST
Temp
°C
App
Temp
°C
Dew
Point
°C
Rel
Hum
%
Delta-T
°C
Wind Press
QNH
hPa
Press
MSL
hPa
Rain since
9am
mm
Dir  Spd
km/h
Gust
km/h
Spd
kts
Gust
kts
24/12:00am 22.9 26.4 22.1 95 0.5 W 7 9 4 5 1015.0 1015.0 0.2
 
Date/Time
EST
Temp
°C
App
Temp
°C
Dew
Point
°C
Rel
Hum
%
Delta-T
°C
Wind Press
QNH
hPa
Press
MSL
hPa
Rain since
9am
mm
Dir  Spd
km/h
Gust
km/h
Spd
kts
Gust
kts
23/11:30pm 23.1 27.9 22.1 94 0.7 CALM 0 0 0 0 1015.3 - 0.2
23/11:22pm 23.1 27.9 22.1 94 0.7 CALM 0 4 0 2 1015.3 - 0.2
23/11:04pm 23.3 26.9 22.3 94 0.7 W 7 7 4 4 1015.3 - 0.2
23/11:00pm 23.3 27.0 22.3 94 0.7 W 6 7 3 4 1015.2 - 0.2
23/10:30pm 23.4 27.2 22.4 94 0.7 W 6 7 3 4 1015.4 - 0.2
23/10:00pm 23.6 27.4 22.4 93 0.8 W 6 7 3 4 1015.7 - 0.2
23/09:51pm 23.6 27.7 22.2 92 0.9 W 4 7 2 4 1015.8 - 0.2
23/09:30pm 24.0 28.2 22.4 91 1.1 SW 4 7 2 4 1015.9 - 0.2
23/09:00pm 24.2 27.5 22.6 91 1.1 WSW 9 11 5 6 1016.0 1016.0 0.2
23/08:36pm 24.4 28.0 22.3 88 1.4 WSW 7 11 4 6 1015.9 - 0.2
23/08:30pm 24.6 28.1 21.9 85 1.8 SSW 6 9 3 5 1015.9 - 0.2
23/08:00pm 25.3 28.4 22.8 86 1.7 E 11 15 6 8 1015.5 - 0.2
23/07:30pm 25.5 27.6 21.0 76 3.0 E 11 13 6 7 1015.3 - 0.2
23/07:00pm 25.4 28.8 22.7 85 1.8 ENE 9 11 5 6 1015.1 - 0.2
23/06:30pm 25.1 28.6 22.2 84 1.9 NNE 7 9 4 5 1014.8 - 0.2
23/06:00pm 25.3 28.3 22.0 82 2.2 NE 9 11 5 6 1014.4 1014.4 0.2
23/05:30pm 25.6 28.9 22.5 83 2.1 NNE 9 11 5 6 1014.2 - 0.2
23/05:00pm 25.9 29.0 22.2 80 2.5 NNE 9 13 5 7 1013.9 - 0.2
23/04:30pm 26.1 29.3 22.4 80 2.5 NE 9 13 5 7 1014.0 - 0.2
23/04:00pm 26.3 29.4 22.2 78 2.8 NNE 9 13 5 7 1013.7 - 0.2
23/03:30pm 26.6 29.5 22.4 78 2.8 NE 11 15 6 8 1013.6 - 0.2
23/03:00pm 26.4 29.4 22.0 77 2.9 ENE 9 11 5 6 1013.7 1013.7 0.2
23/02:30pm 26.5 29.7 22.3 78 2.8 ENE 9 13 5 7 1013.9 - 0.2
23/02:00pm 26.5 29.5 22.6 79 2.6 ENE 11 13 6 7 1014.0 - 0.2
23/01:30pm 26.6 28.9 22.0 76 3.1 ENE 13 15 7 8 1014.3 - 0.2
23/01:00pm 26.6 29.7 21.1 72 3.6 WNW 6 11 3 6 1014.4 - 0.2
23/12:30pm 26.2 29.2 21.2 74 3.3 NW 7 11 4 6 1014.9 - 0.2
23/12:00pm 26.2 29.2 22.7 81 2.4 N 11 17 6 9 1015.4 1015.4 0.2
23/11:55am 25.9 27.7 21.8 78 2.7 N 15 20 8 11 1015.4 - 0.2
23/11:36am 26.1 28.4 22.0 78 2.7 N 13 20 7 11 1015.5 - 0.2
23/11:30am 26.1 29.2 22.2 79 2.6 N 9 15 5 8 1015.6 - 0.2
23/11:00am 25.7 28.6 22.4 82 2.2 N 11 15 6 8 1016.0 - 0.2
23/10:50am 25.5 28.5 22.6 84 2.0 N 11 17 6 9 1016.1 - 0.2
23/10:33am 25.4 28.4 22.7 85 1.8 N 11 15 6 8 1016.2 - 0.2
23/10:30am 25.4 27.9 22.5 84 1.9 N 13 15 7 8 1016.2 - 0.2
23/10:00am 25.5 29.8 23.7 90 1.2 N 7 15 4 8 1016.5 - 0.2
23/09:30am 24.7 29.0 23.3 92 1.0 NNW 6 7 3 4 1016.5 - 0.2
23/09:19am 24.5 28.7 23.1 92 0.9 WNW 6 7 3 4 1016.6 - 0.2
23/09:00am 24.5 28.7 23.1 92 0.9 NW 6 7 3 4 1016.5 1016.5 3.0
23/08:30am 24.4 27.0 22.7 90 1.1 NNE 13 15 7 8 1016.3 - 2.8
23/08:00am 24.4 26.8 23.0 92 0.9 NE 15 19 8 10 1016.0 - 2.8
23/07:30am 23.6 26.5 22.4 93 0.8 ENE 11 15 6 8 1015.5 - 2.8
23/07:23am 23.4 25.8 22.2 93 0.8 ENE 13 19 7 10 1015.5 - 2.8
23/07:20am 23.2 25.1 22.0 93 0.8 ENE 15 20 8 11 1015.5 - 2.8
23/07:00am 23.1 24.4 22.3 95 0.5 ENE 19 24 10 13 1015.4 - 2.4
23/06:56am 23.1 24.4 22.4 96 0.5 ENE 19 24 10 13 1015.4 - 2.2
23/06:50am 23.1 26.9 22.4 96 0.5 WSW 6 17 3 9 1015.4 - 2.0
23/06:30am 23.0 26.7 22.3 96 0.5 SW 6 7 3 4 1015.0 - 2.0
23/06:00am 22.8 26.3 22.1 96 0.5 SW 7 9 4 5 1014.9 1014.9 2.0
23/05:30am 22.8 27.6 22.1 96 0.5 CALM 0 4 0 2 1014.5 - 2.0
23/05:00am 22.8 26.4 22.1 96 0.5 SW 6 7 3 4 1014.4 - 1.8
23/04:30am 22.9 26.4 22.2 96 0.5 SW 7 9 4 5 1014.1 - 1.8
23/04:00am 22.8 26.8 22.1 96 0.5 SW 4 11 2 6 1013.8 - 1.8
23/03:30am 22.8 27.6 22.1 96 0.5 CALM 0 0 0 0 1013.6 - 1.8
23/03:00am 22.8 26.8 22.1 96 0.5 SW 4 9 2 5 1013.5 1013.5 1.8
23/02:30am 22.8 27.6 22.1 96 0.5 CALM 0 0 0 0 1013.7 - 1.8
23/02:00am 22.8 27.5 22.0 95 0.5 CALM 0 0 0 0 1014.0 - 1.8
23/01:30am 22.9 26.9 22.1 95 0.5 WNW 4 9 2 5 1014.2 - 1.6
23/01:00am 23.0 27.5 22.3 96 0.5 WNW 2 7 1 4 1014.5 - 1.2
23/12:30am 23.0 26.1 22.2 95 0.5 W 9 11 5 6 1014.7 - 0.4
23/12:00am 23.2 26.7 22.2 94 0.7 W 7 9 4 5 1015.0 1015.0 0.4
 
Date/Time
EST
Temp
°C
App
Temp
°C
Dew
Point
°C
Rel
Hum
%
Delta-T
°C
Wind Press
QNH
hPa
Press
MSL
hPa
Rain since
9am
mm
Dir  Spd
km/h
Gust
km/h
Spd
kts
Gust
kts
22/11:30pm 23.3 26.9 22.3 94 0.7 WNW 7 9 4 5 1015.0 - 0.2
22/11:00pm 23.4 27.0 22.0 92 0.9 W 6 7 3 4 1015.2 - 0.2
22/10:30pm 23.5 27.1 22.1 92 0.9 W 6 6 3 3 1015.2 - 0.2
22/10:00pm 23.7 27.2 22.1 91 1.1 W 7 9 4 5 1015.4 - 0.2
22/09:30pm 23.8 27.4 22.4 92 0.9 WNW 7 9 4 5 1015.5 - 0.2
22/09:00pm 23.9 27.1 22.3 91 1.1 WNW 9 9 5 5 1015.3 1015.3 0.2
22/08:30pm 24.1 27.5 21.6 86 1.7 WNW 6 7 3 4 1015.0 - 0.2
22/08:00pm 24.2 27.2 21.3 84 1.9 NNW 7 9 4 5 1014.9 - 0.2
22/07:30pm 24.3 27.2 21.0 82 2.2 N 7 9 4 5 1014.5 - 0.2
22/07:00pm 24.6 27.8 21.3 82 2.2 NNW 6 9 3 5 1014.5 - 0.2
22/06:30pm 24.8 27.3 21.1 80 2.4 N 9 11 5 6 1014.1 - 0.2
22/06:00pm 25.4 26.9 20.6 75 3.1 N 13 17 7 9 1013.9 1013.9 0.2
22/05:30pm 26.2 27.4 21.4 75 3.2 NNE 17 26 9 14 1013.6 - 0.2
22/05:00pm 26.7 28.2 21.2 72 3.6 NNE 15 19 8 10 1013.4 - 0.2
22/04:30pm 27.0 29.0 21.5 72 3.7 NNE 13 19 7 10 1013.2 - 0.2
22/04:00pm 27.3 28.7 21.1 69 4.1 NNE 15 20 8 11 1013.2 - 0.2
22/03:30pm 27.5 28.5 21.1 68 4.2 NNE 17 22 9 12 1013.3 - 0.2
22/03:00pm 27.4 29.0 21.4 70 4.0 NNE 15 20 8 11 1013.3 1013.3 0.2
22/02:30pm 27.4 30.4 21.9 72 3.7 NNE 9 15 5 8 1013.2 - 0.2
22/02:00pm 27.6 31.2 23.0 76 3.1 NE 9 13 5 7 1013.3 - 0.2
22/01:30pm 26.9 31.9 23.2 80 2.5 SW 2 9 1 5 1013.6 - 0.2
22/01:00pm 26.2 30.2 23.1 83 2.1 WNW 7 9 4 5 1014.1 - 0.2
22/12:30pm 25.7 29.4 22.6 83 2.1 NW 7 11 4 6 1014.6 - 0.2
22/12:00pm 25.4 27.3 22.7 85 1.8 N 17 22 9 12 1014.7 1014.7 0.2
22/11:40am 25.2 26.9 23.1 88 1.4 N 19 28 10 15 1014.9 - 0.2
22/11:30am 25.0 24.9 22.3 85 1.8 N 26 44 14 24 1014.9 - 0.2
22/11:28am 25.0 25.0 21.7 82 2.2 N 24 44 13 24 1014.9 - 0.2
22/11:00am 28.4 30.2 22.6 71 3.9 NNE 17 20 9 11 1015.1 - 0.2
22/10:30am 28.3 30.1 21.8 68 4.4 NNE 15 20 8 11 1015.2 - 0.2
22/10:00am 27.4 28.2 21.7 71 3.8 NNE 20 24 11 13 1015.4 - 0.2
22/09:30am 26.4 27.3 22.7 80 2.5 ENE 22 28 12 15 1015.6 - 0.2
22/09:00am 28.3 30.1 22.5 71 3.9 NNE 17 22 9 12 1015.7 1015.7 30.0
22/08:30am 27.3 31.8 22.9 77 3.0 NNW 4 11 2 6 1015.7 - 30.0
22/08:00am 25.9 30.4 23.6 87 1.6 WNW 6 9 3 5 1015.6 - 30.0
22/07:30am 25.1 29.2 23.3 90 1.2 NW 7 9 4 5 1015.5 - 30.0
22/07:00am 24.8 26.8 22.3 86 1.7 NNE 15 19 8 10 1015.4 - 30.0
22/06:30am 24.7 27.1 22.9 90 1.2 NNE 15 20 8 11 1015.2 - 30.0
22/06:00am 24.2 26.0 22.6 91 1.1 NNE 17 24 9 13 1014.8 1014.8 30.0
22/05:30am 22.9 26.0 21.5 92 0.9 N 7 13 4 7 1014.5 - 30.0
22/05:16am 23.1 26.4 21.5 91 1.1 E 6 7 3 4 1014.3 - 30.0
22/05:00am 22.8 22.4 21.6 93 0.8 NE 26 35 14 19 1014.5 - 30.0
22/04:48am 23.1 22.8 21.9 93 0.8 NE 26 33 14 18 1014.4 - 29.8
22/04:35am 22.9 22.5 22.4 97 0.3 NE 28 35 15 19 1014.2 - 29.0
22/04:30am 22.4 25.6 21.7 96 0.5 SW 7 9 4 5 1014.2 - 29.0
22/04:24am 22.4 25.7 21.9 97 0.3 SW 7 9 4 5 1014.3 - 28.8
22/04:20am 22.4 25.6 21.7 96 0.5 SW 7 11 4 6 1014.3 - 28.8
22/04:00am 22.4 25.4 21.9 97 0.3 SW 9 11 5 6 1014.0 - 28.4
22/03:47am 22.4 25.3 21.7 96 0.5 W 9 11 5 6 1013.8 - 28.4
22/03:30am 22.4 26.7 21.9 97 0.3 NNW 2 7 1 4 1014.1 - 28.0
22/03:00am 22.5 25.9 21.7 95 0.5 NNW 6 7 3 4 1014.0 1014.0 23.6
22/02:55am 22.6 26.1 21.8 95 0.5 N 6 9 3 5 1014.1 - 22.0
22/02:37am 22.6 25.9 21.9 96 0.5 WSW 7 11 4 6 1014.2 - 17.0
22/02:30am 22.6 25.2 21.9 96 0.5 SW 11 13 6 7 1014.0 - 16.2
22/02:24am 22.7 25.7 21.9 95 0.5 SSW 9 13 5 7 1014.1 - 16.0
22/02:00am 22.6 24.8 21.8 95 0.5 NNW 13 20 7 11 1014.5 - 12.2
22/01:41am 22.9 26.0 22.1 95 0.5 WSW 9 13 5 7 1014.6 - 2.6
22/01:30am 23.0 26.1 22.2 95 0.5 WSW 9 13 5 7 1014.4 - 2.0
22/01:29am 23.1 26.3 22.4 96 0.5 W 9 13 5 7 1014.4 - 2.0
22/01:05am 23.2 25.9 22.2 94 0.7 WNW 11 13 6 7 1014.5 - 2.0
22/01:00am 23.3 26.4 22.1 93 0.8 W 9 13 5 7 1014.5 - 1.8
22/12:39am 23.7 27.0 22.5 93 0.8 ESE 9 17 5 9 1014.8 - 1.8
22/12:34am 23.7 27.4 22.5 93 0.8 E 7 15 4 8 1014.9 - 1.8
22/12:30am 23.7 27.6 22.5 93 0.8 E 6 7 3 4 1014.9 - 1.8
22/12:18am 23.6 26.8 22.4 93 0.8 SSE 9 13 5 7 1014.9 - 1.4
22/12:00am 23.6 27.0 22.0 91 1.1 E 7 13 4 7 1015.0 1015.0 1.0
 
Date/Time
EST
Temp
°C
App
Temp
°C
Dew
Point
°C
Rel
Hum
%
Delta-T
°C
Wind Press
QNH
hPa
Press
MSL
hPa
Rain since
9am
mm
Dir  Spd
km/h
Gust
km/h
Spd
kts
Gust
kts
21/11:56pm 23.5 26.5 21.9 91 1.1 E 9 13 5 7 1015.0 - 0.8
21/11:36pm 23.6 26.4 21.5 88 1.4 S 9 17 5 9 1015.2 - 0.8
21/11:30pm 23.8 26.5 21.3 86 1.6 SSW 9 11 5 6 1014.9 - 0.0
21/11:00pm 23.5 26.5 21.2 87 1.5 SW 7 9 4 5 1015.1 - 0.0
21/10:30pm 23.7 27.0 21.8 89 1.3 W 7 9 4 5 1015.5 - 0.0
21/10:00pm 23.8 26.8 21.3 86 1.6 W 7 9 4 5 1015.5 - 0.0
21/09:30pm 24.2 27.0 20.9 82 2.2 NW 7 9 4 5 1015.5 - 0.0
21/09:00pm 25.2 27.4 21.1 78 2.7 N 11 15 6 8 1015.6 1015.6 0.0
21/08:30pm 25.2 26.7 20.5 75 3.1 NE 13 17 7 9 1015.4 - 0.0
21/08:00pm 24.9 23.9 21.2 80 2.4 NE 28 35 15 19 1015.3 - 0.0
21/07:44pm 25.2 24.2 21.3 79 2.6 NE 28 37 15 20 1015.1 - 0.0
21/07:30pm 26.2 27.2 20.3 70 3.9 NE 15 19 8 10 1014.8 - 0.0
21/07:00pm 26.0 26.3 20.3 71 3.7 NE 19 24 10 13 1014.5 - 0.0
21/06:30pm 25.5 25.4 21.4 78 2.7 NE 24 28 13 15 1014.3 - 0.0
21/06:00pm 26.0 25.9 21.4 76 3.0 NE 24 30 13 16 1014.1 1014.1 0.0
21/05:30pm 26.6 27.6 21.1 72 3.6 ENE 17 20 9 11 1013.9 - 0.0
21/05:00pm 26.8 28.2 21.1 71 3.8 ENE 15 20 8 11 1013.9 - 0.0
21/04:30pm 27.3 28.2 20.9 68 4.2 ENE 17 20 9 11 1013.9 - 0.0
21/04:00pm 28.0 29.5 21.3 67 4.5 ENE 15 19 8 10 1014.0 - 0.0
21/03:30pm 27.5 28.6 21.3 69 4.1 NNE 17 28 9 15 1014.2 - 0.0
21/03:00pm 29.1 29.4 20.3 59 5.8 NE 19 24 10 13 1014.4 1014.4 0.0
21/02:30pm 29.2 29.7 20.9 61 5.5 ENE 19 24 10 13 1014.3 - 0.0
21/02:00pm 29.1 29.7 21.3 62 5.2 ENE 20 24 11 13 1014.4 - 0.0
21/01:30pm 29.9 30.7 21.3 60 5.8 NE 19 26 10 14 1014.6 - 0.0
21/01:00pm 28.2 28.2 20.2 62 5.2 ENE 20 28 11 15 1014.9 - 0.0
21/12:30pm 29.0 29.7 21.2 62 5.2 ENE 19 24 10 13 1015.3 - 0.0
21/12:00pm 29.9 30.2 20.7 57 6.1 ENE 20 24 11 13 1015.6 1015.6 0.0
21/11:30am 29.7 30.3 21.4 61 5.6 ENE 20 26 11 14 1015.8 - 0.0
21/11:00am 28.5 28.4 20.0 60 5.6 ENE 20 26 11 14 1016.0 - 0.0
21/10:30am 29.0 29.3 20.7 61 5.5 ENE 20 26 11 14 1016.2 - 0.0
21/10:00am 29.3 29.7 21.0 61 5.5 NE 20 26 11 14 1016.3 - 0.0
21/09:30am 28.2 28.2 20.2 62 5.2 ENE 20 28 11 15 1016.3 - 0.0
21/09:00am 28.7 29.0 20.7 62 5.3 ENE 20 26 11 14 1016.3 1016.3 3.2
21/08:30am 28.1 28.9 21.4 67 4.5 ENE 19 22 10 12 1016.1 - 3.2
21/08:00am 27.2 28.0 21.7 72 3.7 ENE 20 26 11 14 1016.0 - 3.2
21/07:30am 26.6 26.8 21.4 73 3.5 ENE 22 28 12 15 1015.6 - 3.2
21/07:00am 26.3 26.6 21.5 75 3.2 ENE 22 30 12 16 1015.3 - 3.2
21/06:30am 26.1 25.8 21.1 74 3.3 ENE 24 32 13 17 1015.2 - 3.2
21/06:00am 26.0 26.6 21.4 76 3.0 ENE 20 24 11 13 1015.1 1015.1 3.2
21/05:30am 25.9 26.6 21.6 77 2.9 ENE 20 28 11 15 1014.7 - 3.2
21/05:00am 25.9 26.1 21.3 76 3.0 NE 22 28 12 15 1014.6 - 3.2
21/04:30am 25.9 25.6 21.1 75 3.2 NE 24 30 13 16 1014.5 - 3.2
21/04:00am 25.7 25.7 21.6 78 2.7 NE 24 28 13 15 1014.3 - 3.2
21/03:30am 25.5 25.5 21.6 79 2.6 NE 24 28 13 15 1014.0 - 3.2
21/03:00am 24.8 23.2 20.1 75 3.0 ENE 28 39 15 21 1014.3 1014.3 3.0
21/02:30am 25.9 25.1 20.9 74 3.3 NE 26 35 14 19 1014.3 - 3.0
21/02:00am 26.1 26.3 22.0 78 2.7 NE 24 30 13 16 1014.4 - 3.0
21/01:30am 26.0 26.4 21.7 77 2.9 NE 22 30 12 16 1014.5 - 3.0
21/01:00am 24.5 25.9 21.8 85 1.8 N 17 24 9 13 1014.7 - 3.0
21/12:30am 25.8 26.8 22.1 80 2.5 NE 20 26 11 14 1014.8 - 3.0

Latest Capital City Observations: Canberra | Sydney | Melbourne | Brisbane | Adelaide | Perth | Hobart | Darwin

Other Formats:

Comma delimited format used in spreadsheet applications
http://www.bom.gov.au/fwo/IDQ60901/IDQ60901.94569.axf

JavaScript Object Notation format (JSON) in row-major order
http://www.bom.gov.au/fwo/IDQ60901/IDQ60901.94569.json